sensor_id;sensor_type;location;lat;lon;timestamp;P1;durP1;ratioP1;P2;durP2;ratioP2
16890;SDS011;8562;52.246;20.966;2022-12-10T00:04:47;34.27;;;18.73;;
16890;SDS011;8562;52.246;20.966;2022-12-10T00:07:13;31.93;;;15.93;;
16890;SDS011;8562;52.246;20.966;2022-12-10T00:09:39;37.73;;;18.87;;
16890;SDS011;8562;52.246;20.966;2022-12-10T00:12:05;35.03;;;17.97;;
16890;SDS011;8562;52.246;20.966;2022-12-10T00:14:31;26.70;;;17.47;;
16890;SDS011;8562;52.246;20.966;2022-12-10T00:16:58;44.90;;;20.07;;
16890;SDS011;8562;52.246;20.966;2022-12-10T00:19:24;33.33;;;18.60;;
16890;SDS011;8562;52.246;20.966;2022-12-10T00:21:50;35.03;;;17.83;;
16890;SDS011;8562;52.246;20.966;2022-12-10T00:24:16;28.93;;;17.47;;
16890;SDS011;8562;52.246;20.966;2022-12-10T00:26:42;28.63;;;16.97;;
16890;SDS011;8562;52.246;20.966;2022-12-10T00:29:11;42.47;;;19.13;;
16890;SDS011;8562;52.246;20.966;2022-12-10T00:31:38;37.53;;;19.63;;
16890;SDS011;8562;52.246;20.966;2022-12-10T00:34:05;29.90;;;17.17;;
16890;SDS011;8562;52.246;20.966;2022-12-10T00:36:33;33.50;;;18.60;;
16890;SDS011;8562;52.246;20.966;2022-12-10T00:39:00;29.23;;;16.97;;
16890;SDS011;8562;52.246;20.966;2022-12-10T00:41:26;30.23;;;17.77;;
16890;SDS011;8562;52.246;20.966;2022-12-10T00:43:53;34.17;;;16.40;;
16890;SDS011;8562;52.246;20.966;2022-12-10T00:46:19;27.73;;;14.73;;
16890;SDS011;8562;52.246;20.966;2022-12-10T00:48:45;32.63;;;17.23;;
16890;SDS011;8562;52.246;20.966;2022-12-10T00:51:13;35.23;;;17.50;;
16890;SDS011;8562;52.246;20.966;2022-12-10T00:53:40;35.63;;;17.47;;
16890;SDS011;8562;52.246;20.966;2022-12-10T00:56:08;30.93;;;17.60;;
16890;SDS011;8562;52.246;20.966;2022-12-10T00:58:35;30.40;;;17.80;;
16890;SDS011;8562;52.246;20.966;2022-12-10T01:03:49;35.57;;;19.40;;
16890;SDS011;8562;52.246;20.966;2022-12-10T01:08:45;34.73;;;18.10;;
16890;SDS011;8562;52.246;20.966;2022-12-10T01:11:12;30.93;;;17.80;;
16890;SDS011;8562;52.246;20.966;2022-12-10T01:13:39;33.53;;;14.50;;
16890;SDS011;8562;52.246;20.966;2022-12-10T01:16:07;33.17;;;20.70;;
16890;SDS011;8562;52.246;20.966;2022-12-10T01:18:33;34.30;;;19.67;;
16890;SDS011;8562;52.246;20.966;2022-12-10T01:21:00;29.80;;;15.77;;
16890;SDS011;8562;52.246;20.966;2022-12-10T01:23:27;33.80;;;18.53;;
16890;SDS011;8562;52.246;20.966;2022-12-10T01:25:53;28.57;;;18.30;;
16890;SDS011;8562;52.246;20.966;2022-12-10T01:28:19;24.80;;;16.10;;
16890;SDS011;8562;52.246;20.966;2022-12-10T01:30:45;31.50;;;16.40;;
16890;SDS011;8562;52.246;20.966;2022-12-10T01:33:11;29.53;;;16.60;;
16890;SDS011;8562;52.246;20.966;2022-12-10T01:35:37;36.27;;;17.63;;
16890;SDS011;8562;52.246;20.966;2022-12-10T01:38:03;37.30;;;18.63;;
16890;SDS011;8562;52.246;20.966;2022-12-10T01:40:29;35.03;;;17.60;;
16890;SDS011;8562;52.246;20.966;2022-12-10T01:42:56;30.67;;;15.20;;
16890;SDS011;8562;52.246;20.966;2022-12-10T01:45:22;34.47;;;18.73;;
16890;SDS011;8562;52.246;20.966;2022-12-10T01:47:48;26.40;;;15.63;;
16890;SDS011;8562;52.246;20.966;2022-12-10T01:50:14;28.67;;;16.00;;
16890;SDS011;8562;52.246;20.966;2022-12-10T01:52:41;30.03;;;15.80;;
16890;SDS011;8562;52.246;20.966;2022-12-10T01:55:34;36.43;;;16.60;;
16890;SDS011;8562;52.246;20.966;2022-12-10T01:57:53;26.33;;;17.33;;
16890;SDS011;8562;52.246;20.966;2022-12-10T02:00:19;33.10;;;16.40;;
16890;SDS011;8562;52.246;20.966;2022-12-10T02:02:52;34.43;;;20.03;;
16890;SDS011;8562;52.246;20.966;2022-12-10T02:05:25;30.43;;;16.83;;
16890;SDS011;8562;52.246;20.966;2022-12-10T02:08:16;37.10;;;17.63;;
16890;SDS011;8562;52.246;20.966;2022-12-10T02:13:18;24.43;;;14.90;;
16890;SDS011;8562;52.246;20.966;2022-12-10T02:15:49;30.77;;;15.87;;
16890;SDS011;8562;52.246;20.966;2022-12-10T02:18:36;25.87;;;13.80;;
16890;SDS011;8562;52.246;20.966;2022-12-10T02:21:05;26.83;;;14.27;;
16890;SDS011;8562;52.246;20.966;2022-12-10T02:23:42;25.53;;;14.97;;
16890;SDS011;8562;52.246;20.966;2022-12-10T02:31:29;32.67;;;17.53;;
16890;SDS011;8562;52.246;20.966;2022-12-10T02:33:59;24.50;;;14.53;;
16890;SDS011;8562;52.246;20.966;2022-12-10T02:36:27;30.70;;;16.27;;
16890;SDS011;8562;52.246;20.966;2022-12-10T02:38:55;33.83;;;16.70;;
16890;SDS011;8562;52.246;20.966;2022-12-10T02:41:25;28.63;;;15.90;;
16890;SDS011;8562;52.246;20.966;2022-12-10T02:43:56;31.67;;;16.10;;
16890;SDS011;8562;52.246;20.966;2022-12-10T02:46:23;33.70;;;15.43;;
16890;SDS011;8562;52.246;20.966;2022-12-10T02:48:50;36.00;;;12.97;;
16890;SDS011;8562;52.246;20.966;2022-12-10T02:51:17;22.73;;;14.40;;
16890;SDS011;8562;52.246;20.966;2022-12-10T02:53:43;28.77;;;15.63;;
16890;SDS011;8562;52.246;20.966;2022-12-10T03:05:15;28.07;;;14.93;;
16890;SDS011;8562;52.246;20.966;2022-12-10T03:10:50;23.67;;;12.20;;
16890;SDS011;8562;52.246;20.966;2022-12-10T03:13:19;29.30;;;14.00;;
16890;SDS011;8562;52.246;20.966;2022-12-10T03:15:47;22.33;;;10.47;;
16890;SDS011;8562;52.246;20.966;2022-12-10T03:18:15;27.00;;;15.33;;
16890;SDS011;8562;52.246;20.966;2022-12-10T03:20:43;19.13;;;13.60;;
16890;SDS011;8562;52.246;20.966;2022-12-10T03:23:11;25.73;;;16.17;;
16890;SDS011;8562;52.246;20.966;2022-12-10T03:25:39;18.07;;;12.60;;
16890;SDS011;8562;52.246;20.966;2022-12-10T03:28:05;23.03;;;12.17;;
16890;SDS011;8562;52.246;20.966;2022-12-10T03:30:32;20.83;;;13.87;;
16890;SDS011;8562;52.246;20.966;2022-12-10T03:32:59;23.83;;;11.77;;
16890;SDS011;8562;52.246;20.966;2022-12-10T03:35:25;21.57;;;10.20;;
16890;SDS011;8562;52.246;20.966;2022-12-10T03:37:52;26.33;;;13.40;;
16890;SDS011;8562;52.246;20.966;2022-12-10T03:40:20;22.47;;;13.90;;
16890;SDS011;8562;52.246;20.966;2022-12-10T03:42:47;20.27;;;11.70;;
16890;SDS011;8562;52.246;20.966;2022-12-10T03:45:13;23.30;;;14.23;;
16890;SDS011;8562;52.246;20.966;2022-12-10T03:47:40;22.63;;;13.60;;
16890;SDS011;8562;52.246;20.966;2022-12-10T03:50:06;22.67;;;12.53;;
16890;SDS011;8562;52.246;20.966;2022-12-10T03:52:32;30.47;;;12.83;;
16890;SDS011;8562;52.246;20.966;2022-12-10T03:54:58;16.97;;;12.47;;
16890;SDS011;8562;52.246;20.966;2022-12-10T03:57:25;29.77;;;13.03;;
16890;SDS011;8562;52.246;20.966;2022-12-10T03:59:51;27.80;;;12.00;;
16890;SDS011;8562;52.246;20.966;2022-12-10T04:02:17;21.73;;;12.17;;
16890;SDS011;8562;52.246;20.966;2022-12-10T04:04:43;25.40;;;14.97;;
16890;SDS011;8562;52.246;20.966;2022-12-10T04:07:09;23.03;;;11.40;;
16890;SDS011;8562;52.246;20.966;2022-12-10T04:09:35;23.57;;;11.83;;
16890;SDS011;8562;52.246;20.966;2022-12-10T04:12:01;28.40;;;14.10;;
16890;SDS011;8562;52.246;20.966;2022-12-10T04:14:28;23.23;;;12.80;;
16890;SDS011;8562;52.246;20.966;2022-12-10T04:17:12;25.23;;;12.63;;
16890;SDS011;8562;52.246;20.966;2022-12-10T04:19:38;27.97;;;12.27;;
16890;SDS011;8562;52.246;20.966;2022-12-10T04:22:05;20.27;;;11.73;;
16890;SDS011;8562;52.246;20.966;2022-12-10T04:24:49;26.73;;;14.37;;
16890;SDS011;8562;52.246;20.966;2022-12-10T04:27:36;23.20;;;12.20;;
16890;SDS011;8562;52.246;20.966;2022-12-10T04:30:03;31.67;;;13.97;;
16890;SDS011;8562;52.246;20.966;2022-12-10T04:32:30;21.23;;;12.60;;
16890;SDS011;8562;52.246;20.966;2022-12-10T04:34:56;19.63;;;11.73;;
16890;SDS011;8562;52.246;20.966;2022-12-10T04:37:22;27.60;;;13.00;;
16890;SDS011;8562;52.246;20.966;2022-12-10T04:39:49;25.87;;;12.43;;
16890;SDS011;8562;52.246;20.966;2022-12-10T04:42:15;26.30;;;12.87;;
16890;SDS011;8562;52.246;20.966;2022-12-10T04:44:41;23.33;;;11.87;;
16890;SDS011;8562;52.246;20.966;2022-12-10T04:47:08;19.80;;;10.63;;
16890;SDS011;8562;52.246;20.966;2022-12-10T04:49:34;28.13;;;12.17;;
16890;SDS011;8562;52.246;20.966;2022-12-10T04:52:01;23.13;;;13.20;;
16890;SDS011;8562;52.246;20.966;2022-12-10T04:54:27;25.67;;;12.53;;
16890;SDS011;8562;52.246;20.966;2022-12-10T04:56:54;22.43;;;13.00;;
16890;SDS011;8562;52.246;20.966;2022-12-10T04:59:20;19.17;;;13.43;;
16890;SDS011;8562;52.246;20.966;2022-12-10T05:01:46;29.07;;;13.63;;
16890;SDS011;8562;52.246;20.966;2022-12-10T05:04:14;23.13;;;13.87;;
16890;SDS011;8562;52.246;20.966;2022-12-10T05:06:41;24.23;;;10.83;;
16890;SDS011;8562;52.246;20.966;2022-12-10T05:09:07;28.77;;;13.70;;
16890;SDS011;8562;52.246;20.966;2022-12-10T05:11:34;26.23;;;13.07;;
16890;SDS011;8562;52.246;20.966;2022-12-10T05:14:00;25.77;;;13.00;;
16890;SDS011;8562;52.246;20.966;2022-12-10T05:16:27;21.77;;;10.80;;
16890;SDS011;8562;52.246;20.966;2022-12-10T05:18:54;18.43;;;10.87;;
16890;SDS011;8562;52.246;20.966;2022-12-10T05:21:21;28.70;;;13.10;;
16890;SDS011;8562;52.246;20.966;2022-12-10T05:23:48;27.90;;;12.13;;
16890;SDS011;8562;52.246;20.966;2022-12-10T05:26:15;20.93;;;10.53;;
16890;SDS011;8562;52.246;20.966;2022-12-10T05:28:43;21.03;;;10.43;;
16890;SDS011;8562;52.246;20.966;2022-12-10T05:31:12;23.87;;;11.63;;
16890;SDS011;8562;52.246;20.966;2022-12-10T05:33:39;27.10;;;11.53;;
16890;SDS011;8562;52.246;20.966;2022-12-10T05:36:05;16.17;;;9.63;;
16890;SDS011;8562;52.246;20.966;2022-12-10T05:38:32;18.90;;;9.37;;
16890;SDS011;8562;52.246;20.966;2022-12-10T05:41:02;19.90;;;9.00;;
16890;SDS011;8562;52.246;20.966;2022-12-10T05:43:28;15.57;;;9.40;;
16890;SDS011;8562;52.246;20.966;2022-12-10T05:45:58;13.07;;;9.17;;
16890;SDS011;8562;52.246;20.966;2022-12-10T05:48:24;17.20;;;7.50;;
16890;SDS011;8562;52.246;20.966;2022-12-10T05:50:50;17.03;;;9.70;;
16890;SDS011;8562;52.246;20.966;2022-12-10T05:53:16;20.53;;;10.50;;
16890;SDS011;8562;52.246;20.966;2022-12-10T05:55:43;18.27;;;8.97;;
16890;SDS011;8562;52.246;20.966;2022-12-10T05:58:09;22.67;;;10.23;;
16890;SDS011;8562;52.246;20.966;2022-12-10T06:00:38;22.13;;;10.13;;
16890;SDS011;8562;52.246;20.966;2022-12-10T06:03:04;21.80;;;12.10;;
16890;SDS011;8562;52.246;20.966;2022-12-10T06:05:35;28.93;;;11.07;;
16890;SDS011;8562;52.246;20.966;2022-12-10T06:08:02;23.30;;;11.03;;
16890;SDS011;8562;52.246;20.966;2022-12-10T06:10:28;21.17;;;10.87;;
16890;SDS011;8562;52.246;20.966;2022-12-10T06:12:54;23.40;;;13.37;;
16890;SDS011;8562;52.246;20.966;2022-12-10T06:15:20;27.73;;;11.20;;
16890;SDS011;8562;52.246;20.966;2022-12-10T06:17:46;32.10;;;12.27;;
16890;SDS011;8562;52.246;20.966;2022-12-10T06:20:13;21.03;;;11.87;;
16890;SDS011;8562;52.246;20.966;2022-12-10T06:22:39;25.00;;;11.83;;
16890;SDS011;8562;52.246;20.966;2022-12-10T06:25:05;15.83;;;9.77;;
16890;SDS011;8562;52.246;20.966;2022-12-10T06:27:31;22.30;;;9.90;;
16890;SDS011;8562;52.246;20.966;2022-12-10T06:29:57;22.50;;;11.50;;
16890;SDS011;8562;52.246;20.966;2022-12-10T06:32:24;23.53;;;9.83;;
16890;SDS011;8562;52.246;20.966;2022-12-10T06:34:50;18.40;;;10.83;;
16890;SDS011;8562;52.246;20.966;2022-12-10T06:37:16;25.03;;;11.63;;
16890;SDS011;8562;52.246;20.966;2022-12-10T06:39:42;18.37;;;8.83;;
16890;SDS011;8562;52.246;20.966;2022-12-10T06:42:08;18.53;;;9.40;;
16890;SDS011;8562;52.246;20.966;2022-12-10T06:44:35;17.00;;;9.13;;
16890;SDS011;8562;52.246;20.966;2022-12-10T06:47:01;16.27;;;9.97;;
16890;SDS011;8562;52.246;20.966;2022-12-10T06:49:27;18.93;;;10.03;;
16890;SDS011;8562;52.246;20.966;2022-12-10T06:51:53;19.63;;;8.93;;
16890;SDS011;8562;52.246;20.966;2022-12-10T06:54:19;21.93;;;9.57;;
16890;SDS011;8562;52.246;20.966;2022-12-10T06:56:45;19.63;;;10.17;;
16890;SDS011;8562;52.246;20.966;2022-12-10T06:59:11;22.27;;;10.53;;
16890;SDS011;8562;52.246;20.966;2022-12-10T07:01:38;17.47;;;8.90;;
16890;SDS011;8562;52.246;20.966;2022-12-10T07:04:05;16.23;;;8.63;;
16890;SDS011;8562;52.246;20.966;2022-12-10T07:06:31;15.93;;;8.27;;
16890;SDS011;8562;52.246;20.966;2022-12-10T07:08:57;26.00;;;9.60;;
16890;SDS011;8562;52.246;20.966;2022-12-10T07:11:24;22.47;;;10.20;;
16890;SDS011;8562;52.246;20.966;2022-12-10T07:13:51;17.17;;;9.07;;
16890;SDS011;8562;52.246;20.966;2022-12-10T07:16:18;18.33;;;9.13;;
16890;SDS011;8562;52.246;20.966;2022-12-10T07:18:45;19.87;;;9.23;;
16890;SDS011;8562;52.246;20.966;2022-12-10T07:21:15;16.27;;;8.63;;
16890;SDS011;8562;52.246;20.966;2022-12-10T07:23:41;17.00;;;8.97;;
16890;SDS011;8562;52.246;20.966;2022-12-10T07:26:07;17.50;;;9.03;;
16890;SDS011;8562;52.246;20.966;2022-12-10T07:28:33;21.47;;;9.17;;
16890;SDS011;8562;52.246;20.966;2022-12-10T07:31:03;18.17;;;8.17;;
16890;SDS011;8562;52.246;20.966;2022-12-10T07:33:29;20.00;;;8.63;;
16890;SDS011;8562;52.246;20.966;2022-12-10T07:35:55;18.57;;;9.77;;
16890;SDS011;8562;52.246;20.966;2022-12-10T07:38:22;19.40;;;10.53;;
16890;SDS011;8562;52.246;20.966;2022-12-10T07:40:48;22.83;;;8.00;;
16890;SDS011;8562;52.246;20.966;2022-12-10T07:43:15;17.07;;;9.90;;
16890;SDS011;8562;52.246;20.966;2022-12-10T07:45:42;21.80;;;11.43;;
16890;SDS011;8562;52.246;20.966;2022-12-10T07:48:08;24.50;;;11.67;;
16890;SDS011;8562;52.246;20.966;2022-12-10T07:50:34;22.57;;;8.53;;
16890;SDS011;8562;52.246;20.966;2022-12-10T07:53:00;16.10;;;8.47;;
16890;SDS011;8562;52.246;20.966;2022-12-10T07:55:26;16.43;;;9.40;;
16890;SDS011;8562;52.246;20.966;2022-12-10T07:57:52;18.77;;;9.83;;
16890;SDS011;8562;52.246;20.966;2022-12-10T08:00:18;19.73;;;7.83;;
16890;SDS011;8562;52.246;20.966;2022-12-10T08:02:44;24.50;;;9.47;;
16890;SDS011;8562;52.246;20.966;2022-12-10T08:05:10;16.07;;;7.43;;
16890;SDS011;8562;52.246;20.966;2022-12-10T08:07:36;13.23;;;8.67;;
16890;SDS011;8562;52.246;20.966;2022-12-10T08:10:03;23.40;;;10.63;;
16890;SDS011;8562;52.246;20.966;2022-12-10T08:12:29;18.73;;;9.60;;
16890;SDS011;8562;52.246;20.966;2022-12-10T08:14:55;15.73;;;7.80;;
16890;SDS011;8562;52.246;20.966;2022-12-10T08:17:21;17.03;;;7.77;;
16890;SDS011;8562;52.246;20.966;2022-12-10T08:19:47;26.47;;;9.87;;
16890;SDS011;8562;52.246;20.966;2022-12-10T08:22:14;14.77;;;8.53;;
16890;SDS011;8562;52.246;20.966;2022-12-10T08:24:40;19.33;;;7.93;;
16890;SDS011;8562;52.246;20.966;2022-12-10T08:27:06;20.57;;;8.40;;
16890;SDS011;8562;52.246;20.966;2022-12-10T08:29:32;18.50;;;7.77;;
16890;SDS011;8562;52.246;20.966;2022-12-10T08:31:58;18.70;;;9.30;;
16890;SDS011;8562;52.246;20.966;2022-12-10T08:34:24;17.90;;;8.77;;
16890;SDS011;8562;52.246;20.966;2022-12-10T08:36:50;14.13;;;7.47;;
16890;SDS011;8562;52.246;20.966;2022-12-10T08:39:17;14.27;;;7.07;;
16890;SDS011;8562;52.246;20.966;2022-12-10T08:41:44;11.20;;;6.40;;
16890;SDS011;8562;52.246;20.966;2022-12-10T08:44:10;12.97;;;7.33;;
16890;SDS011;8562;52.246;20.966;2022-12-10T08:46:37;15.30;;;6.70;;
16890;SDS011;8562;52.246;20.966;2022-12-10T08:49:03;13.77;;;6.57;;
16890;SDS011;8562;52.246;20.966;2022-12-10T08:51:29;25.07;;;8.10;;
16890;SDS011;8562;52.246;20.966;2022-12-10T08:53:55;19.37;;;8.27;;
16890;SDS011;8562;52.246;20.966;2022-12-10T08:56:22;18.37;;;9.23;;
16890;SDS011;8562;52.246;20.966;2022-12-10T08:58:49;15.57;;;6.77;;
16890;SDS011;8562;52.246;20.966;2022-12-10T09:01:16;19.07;;;8.07;;
16890;SDS011;8562;52.246;20.966;2022-12-10T09:03:43;14.30;;;7.70;;
16890;SDS011;8562;52.246;20.966;2022-12-10T09:06:11;15.30;;;7.57;;
16890;SDS011;8562;52.246;20.966;2022-12-10T09:08:38;15.97;;;7.53;;
16890;SDS011;8562;52.246;20.966;2022-12-10T09:11:05;20.17;;;7.87;;
16890;SDS011;8562;52.246;20.966;2022-12-10T09:13:32;22.23;;;9.13;;
16890;SDS011;8562;52.246;20.966;2022-12-10T09:15:58;23.97;;;7.70;;
16890;SDS011;8562;52.246;20.966;2022-12-10T09:18:24;13.13;;;7.87;;
16890;SDS011;8562;52.246;20.966;2022-12-10T09:20:50;14.73;;;7.93;;
16890;SDS011;8562;52.246;20.966;2022-12-10T09:23:16;12.97;;;7.30;;
16890;SDS011;8562;52.246;20.966;2022-12-10T09:25:42;15.10;;;8.23;;
16890;SDS011;8562;52.246;20.966;2022-12-10T09:28:08;18.83;;;9.33;;
16890;SDS011;8562;52.246;20.966;2022-12-10T09:30:34;16.93;;;8.07;;
16890;SDS011;8562;52.246;20.966;2022-12-10T09:33:01;16.73;;;8.17;;
16890;SDS011;8562;52.246;20.966;2022-12-10T09:35:27;15.23;;;7.80;;
16890;SDS011;8562;52.246;20.966;2022-12-10T09:37:53;13.93;;;8.00;;
16890;SDS011;8562;52.246;20.966;2022-12-10T09:40:22;14.03;;;7.07;;
16890;SDS011;8562;52.246;20.966;2022-12-10T09:42:52;15.07;;;7.93;;
16890;SDS011;8562;52.246;20.966;2022-12-10T09:50:34;13.73;;;6.83;;
16890;SDS011;8562;52.246;20.966;2022-12-10T09:53:03;17.43;;;9.70;;
16890;SDS011;8562;52.246;20.966;2022-12-10T09:55:35;17.70;;;9.33;;
16890;SDS011;8562;52.246;20.966;2022-12-10T09:58:03;15.13;;;8.30;;
16890;SDS011;8562;52.246;20.966;2022-12-10T10:00:37;22.50;;;10.50;;
16890;SDS011;8562;52.246;20.966;2022-12-10T10:03:03;13.70;;;7.50;;
16890;SDS011;8562;52.246;20.966;2022-12-10T10:05:33;18.57;;;8.07;;
16890;SDS011;8562;52.246;20.966;2022-12-10T10:08:01;14.40;;;6.80;;
16890;SDS011;8562;52.246;20.966;2022-12-10T10:10:29;18.40;;;9.33;;
16890;SDS011;8562;52.246;20.966;2022-12-10T10:13:00;18.17;;;9.13;;
16890;SDS011;8562;52.246;20.966;2022-12-10T10:15:31;19.17;;;8.80;;
16890;SDS011;8562;52.246;20.966;2022-12-10T10:17:58;19.27;;;9.03;;
16890;SDS011;8562;52.246;20.966;2022-12-10T10:20:25;15.87;;;9.00;;
16890;SDS011;8562;52.246;20.966;2022-12-10T10:22:52;19.00;;;8.40;;
16890;SDS011;8562;52.246;20.966;2022-12-10T10:25:19;15.67;;;8.13;;
16890;SDS011;8562;52.246;20.966;2022-12-10T10:27:45;15.80;;;8.03;;
16890;SDS011;8562;52.246;20.966;2022-12-10T10:30:19;15.90;;;7.43;;
16890;SDS011;8562;52.246;20.966;2022-12-10T10:35:30;16.03;;;7.70;;
16890;SDS011;8562;52.246;20.966;2022-12-10T10:37:59;12.20;;;8.40;;
16890;SDS011;8562;52.246;20.966;2022-12-10T10:40:27;15.53;;;7.23;;
16890;SDS011;8562;52.246;20.966;2022-12-10T10:42:54;14.63;;;8.67;;
16890;SDS011;8562;52.246;20.966;2022-12-10T10:50:55;13.97;;;6.57;;
16890;SDS011;8562;52.246;20.966;2022-12-10T10:53:41;18.57;;;8.00;;
16890;SDS011;8562;52.246;20.966;2022-12-10T10:58:35;15.23;;;7.23;;
16890;SDS011;8562;52.246;20.966;2022-12-10T11:01:08;18.53;;;8.63;;
16890;SDS011;8562;52.246;20.966;2022-12-10T11:03:34;14.57;;;8.73;;
16890;SDS011;8562;52.246;20.966;2022-12-10T11:06:03;17.57;;;8.03;;
16890;SDS011;8562;52.246;20.966;2022-12-10T11:08:30;14.80;;;8.17;;
16890;SDS011;8562;52.246;20.966;2022-12-10T11:10:58;16.17;;;8.33;;
16890;SDS011;8562;52.246;20.966;2022-12-10T11:13:27;14.33;;;8.30;;
16890;SDS011;8562;52.246;20.966;2022-12-10T11:15:56;13.47;;;7.93;;
16890;SDS011;8562;52.246;20.966;2022-12-10T11:18:42;18.03;;;8.40;;
16890;SDS011;8562;52.246;20.966;2022-12-10T11:23:41;17.30;;;7.43;;
16890;SDS011;8562;52.246;20.966;2022-12-10T11:26:30;20.50;;;9.17;;
16890;SDS011;8562;52.246;20.966;2022-12-10T11:34:06;18.40;;;9.73;;
16890;SDS011;8562;52.246;20.966;2022-12-10T11:42:19;13.67;;;7.77;;
16890;SDS011;8562;52.246;20.966;2022-12-10T11:44:49;23.23;;;10.70;;
16890;SDS011;8562;52.246;20.966;2022-12-10T12:00:05;16.60;;;7.93;;
16890;SDS011;8562;52.246;20.966;2022-12-10T12:12:56;16.27;;;8.10;;
16890;SDS011;8562;52.246;20.966;2022-12-10T12:18:21;14.73;;;7.87;;
16890;SDS011;8562;52.246;20.966;2022-12-10T12:20:53;20.23;;;8.33;;
16890;SDS011;8562;52.246;20.966;2022-12-10T12:23:23;15.87;;;8.23;;
16890;SDS011;8562;52.246;20.966;2022-12-10T12:25:51;12.70;;;7.87;;
16890;SDS011;8562;52.246;20.966;2022-12-10T12:28:22;20.07;;;9.83;;
16890;SDS011;8562;52.246;20.966;2022-12-10T12:30:53;17.53;;;8.03;;
16890;SDS011;8562;52.246;20.966;2022-12-10T12:33:29;13.87;;;9.03;;
16890;SDS011;8562;52.246;20.966;2022-12-10T12:35:59;20.40;;;8.60;;
16890;SDS011;8562;52.246;20.966;2022-12-10T12:40:54;20.20;;;8.57;;
16890;SDS011;8562;52.246;20.966;2022-12-10T12:43:24;24.60;;;10.20;;
16890;SDS011;8562;52.246;20.966;2022-12-10T12:45:52;18.57;;;8.00;;
16890;SDS011;8562;52.246;20.966;2022-12-10T12:48:26;19.43;;;9.63;;
16890;SDS011;8562;52.246;20.966;2022-12-10T12:53:27;22.63;;;9.37;;
16890;SDS011;8562;52.246;20.966;2022-12-10T12:58:25;15.63;;;8.37;;
16890;SDS011;8562;52.246;20.966;2022-12-10T13:00:55;10.10;;;6.20;;
16890;SDS011;8562;52.246;20.966;2022-12-10T13:03:27;17.17;;;6.80;;
16890;SDS011;8562;52.246;20.966;2022-12-10T13:05:55;11.43;;;6.60;;
16890;SDS011;8562;52.246;20.966;2022-12-10T13:13:17;13.43;;;7.60;;
16890;SDS011;8562;52.246;20.966;2022-12-10T13:15:48;12.93;;;8.03;;
16890;SDS011;8562;52.246;20.966;2022-12-10T13:28:21;15.20;;;7.70;;
16890;SDS011;8562;52.246;20.966;2022-12-10T13:36:21;17.50;;;9.33;;
16890;SDS011;8562;52.246;20.966;2022-12-10T13:38:54;14.17;;;8.73;;
16890;SDS011;8562;52.246;20.966;2022-12-10T13:41:21;18.63;;;7.60;;
16890;SDS011;8562;52.246;20.966;2022-12-10T13:44:24;12.57;;;7.00;;
16890;SDS011;8562;52.246;20.966;2022-12-10T13:46:52;17.30;;;8.17;;
16890;SDS011;8562;52.246;20.966;2022-12-10T13:49:19;23.83;;;9.17;;
16890;SDS011;8562;52.246;20.966;2022-12-10T13:57:07;15.07;;;6.93;;
16890;SDS011;8562;52.246;20.966;2022-12-10T14:08:01;14.43;;;8.50;;
16890;SDS011;8562;52.246;20.966;2022-12-10T14:10:32;19.73;;;8.33;;
16890;SDS011;8562;52.246;20.966;2022-12-10T14:13:00;14.23;;;8.03;;
16890;SDS011;8562;52.246;20.966;2022-12-10T14:15:28;11.83;;;7.70;;
16890;SDS011;8562;52.246;20.966;2022-12-10T14:17:59;18.17;;;8.10;;
16890;SDS011;8562;52.246;20.966;2022-12-10T14:20:26;14.90;;;7.60;;
16890;SDS011;8562;52.246;20.966;2022-12-10T14:22:54;12.83;;;8.57;;
16890;SDS011;8562;52.246;20.966;2022-12-10T14:25:44;15.00;;;8.40;;
16890;SDS011;8562;52.246;20.966;2022-12-10T14:28:12;13.57;;;7.80;;
16890;SDS011;8562;52.246;20.966;2022-12-10T14:30:41;10.67;;;7.37;;
16890;SDS011;8562;52.246;20.966;2022-12-10T14:33:08;11.33;;;7.27;;
16890;SDS011;8562;52.246;20.966;2022-12-10T14:35:36;16.27;;;9.17;;
16890;SDS011;8562;52.246;20.966;2022-12-10T14:38:02;13.00;;;8.10;;
16890;SDS011;8562;52.246;20.966;2022-12-10T14:40:32;13.30;;;6.97;;
16890;SDS011;8562;52.246;20.966;2022-12-10T14:43:43;16.23;;;7.93;;
16890;SDS011;8562;52.246;20.966;2022-12-10T14:45:52;15.50;;;8.13;;
16890;SDS011;8562;52.246;20.966;2022-12-10T14:48:20;15.23;;;8.10;;
16890;SDS011;8562;52.246;20.966;2022-12-10T14:50:47;14.00;;;7.57;;
16890;SDS011;8562;52.246;20.966;2022-12-10T14:55:43;15.80;;;9.17;;
16890;SDS011;8562;52.246;20.966;2022-12-10T14:58:15;17.23;;;7.50;;
16890;SDS011;8562;52.246;20.966;2022-12-10T15:00:42;14.90;;;8.83;;
16890;SDS011;8562;52.246;20.966;2022-12-10T15:03:09;11.30;;;7.43;;
16890;SDS011;8562;52.246;20.966;2022-12-10T15:05:36;14.50;;;8.20;;
16890;SDS011;8562;52.246;20.966;2022-12-10T15:08:04;16.07;;;9.00;;
16890;SDS011;8562;52.246;20.966;2022-12-10T15:10:40;20.33;;;10.43;;
16890;SDS011;8562;52.246;20.966;2022-12-10T15:13:07;23.73;;;10.60;;
16890;SDS011;8562;52.246;20.966;2022-12-10T15:15:39;16.27;;;8.50;;
16890;SDS011;8562;52.246;20.966;2022-12-10T15:20:53;19.47;;;10.57;;
16890;SDS011;8562;52.246;20.966;2022-12-10T15:25:51;11.30;;;7.63;;
16890;SDS011;8562;52.246;20.966;2022-12-10T15:28:35;15.60;;;8.20;;
16890;SDS011;8562;52.246;20.966;2022-12-10T15:31:12;15.47;;;9.10;;
16890;SDS011;8562;52.246;20.966;2022-12-10T15:33:40;10.30;;;6.90;;
16890;SDS011;8562;52.246;20.966;2022-12-10T15:38:43;12.57;;;8.07;;
16890;SDS011;8562;52.246;20.966;2022-12-10T15:43:51;18.73;;;8.87;;
16890;SDS011;8562;52.246;20.966;2022-12-10T15:46:17;17.53;;;10.27;;
16890;SDS011;8562;52.246;20.966;2022-12-10T15:48:43;16.77;;;7.97;;
16890;SDS011;8562;52.246;20.966;2022-12-10T15:51:09;16.87;;;9.20;;
16890;SDS011;8562;52.246;20.966;2022-12-10T15:53:36;20.90;;;10.30;;
16890;SDS011;8562;52.246;20.966;2022-12-10T15:56:03;9.77;;;6.63;;
16890;SDS011;8562;52.246;20.966;2022-12-10T15:58:29;16.80;;;8.30;;
16890;SDS011;8562;52.246;20.966;2022-12-10T16:00:55;11.97;;;7.17;;
16890;SDS011;8562;52.246;20.966;2022-12-10T16:03:21;13.23;;;8.03;;
16890;SDS011;8562;52.246;20.966;2022-12-10T16:05:53;11.93;;;9.23;;
16890;SDS011;8562;52.246;20.966;2022-12-10T16:08:23;10.03;;;8.40;;
16890;SDS011;8562;52.246;20.966;2022-12-10T16:10:50;15.37;;;9.37;;
16890;SDS011;8562;52.246;20.966;2022-12-10T16:13:36;10.50;;;7.40;;
16890;SDS011;8562;52.246;20.966;2022-12-10T16:16:09;11.27;;;7.57;;
16890;SDS011;8562;52.246;20.966;2022-12-10T16:18:35;16.13;;;8.37;;
16890;SDS011;8562;52.246;20.966;2022-12-10T16:21:05;16.50;;;8.83;;
16890;SDS011;8562;52.246;20.966;2022-12-10T16:23:32;13.63;;;8.20;;
16890;SDS011;8562;52.246;20.966;2022-12-10T16:25:58;18.40;;;9.00;;
16890;SDS011;8562;52.246;20.966;2022-12-10T16:28:26;13.73;;;8.73;;
16890;SDS011;8562;52.246;20.966;2022-12-10T16:30:53;15.33;;;8.03;;
16890;SDS011;8562;52.246;20.966;2022-12-10T16:33:20;12.60;;;7.23;;
16890;SDS011;8562;52.246;20.966;2022-12-10T16:35:47;14.50;;;8.20;;
16890;SDS011;8562;52.246;20.966;2022-12-10T16:38:13;15.10;;;8.77;;
16890;SDS011;8562;52.246;20.966;2022-12-10T16:40:40;13.80;;;7.90;;
16890;SDS011;8562;52.246;20.966;2022-12-10T16:43:22;19.80;;;8.60;;
16890;SDS011;8562;52.246;20.966;2022-12-10T16:45:50;13.10;;;9.87;;
16890;SDS011;8562;52.246;20.966;2022-12-10T16:48:17;17.27;;;10.27;;
16890;SDS011;8562;52.246;20.966;2022-12-10T16:50:43;14.50;;;7.63;;
16890;SDS011;8562;52.246;20.966;2022-12-10T16:53:17;14.33;;;8.10;;